Time;durP1;ratioP1;P1;durP2;ratioP2;P2;SDS_P1;SDS_P2;PMS_P1;PMS_P2;Temp;Humidity;BMP_temperature;BMP_pressure;BME280_temperature;BME280_humidity;BME280_pressure;Samples;Min_cycle;Max_cycle;Signal;HPM_P1;HPM_P2
2023/07/18 00:01:07;;;;;;;1.67;1.30;;;;;;;16.82;56.99;101847.13;4960528;28;97337;-42
2023/07/18 00:03:33;;;;;;;1.87;1.67;;;;;;;16.80;57.19;101851.69;4962926;28;96996;-42
2023/07/18 00:05:58;;;;;;;1.40;1.30;;;;;;;16.77;57.17;101847.91;4961547;28;97157;-43
2023/07/18 00:08:23;;;;;;;1.70;1.60;;;;;;;16.75;57.21;101844.88;4961141;28;111065;-42
2023/07/18 00:10:49;;;;;;;2.53;1.57;;;;;;;16.76;57.32;101845.63;4959961;28;98701;-42
2023/07/18 00:13:14;;;;;;;1.73;1.47;;;;;;;16.75;57.43;101846.91;4961607;28;97059;-42
2023/07/18 00:15:39;;;;;;;1.33;1.23;;;;;;;16.77;57.44;101847.91;4962683;28;97096;-42
2023/07/18 00:18:07;;;;;;;2.83;1.73;;;;;;;16.80;57.55;101840.56;4960211;28;97131;-42
2023/07/18 00:20:32;;;;;;;1.40;1.30;;;;;;;16.80;57.37;101849.66;4961917;28;97396;-42
2023/07/18 00:22:58;;;;;;;1.50;1.40;;;;;;;16.78;57.33;101846.63;4962496;28;97417;-42
2023/07/18 00:25:23;;;;;;;1.40;1.30;;;;;;;16.77;57.40;101836.03;4962134;28;96840;-42
2023/07/18 00:27:49;;;;;;;2.20;1.47;;;;;;;16.79;57.57;101836.28;4960896;28;96941;-42
2023/07/18 00:30:17;;;;;;;1.60;1.50;;;;;;;16.81;57.64;101840.06;4961962;28;96758;-42
2023/07/18 00:32:44;;;;;;;1.70;1.60;;;;;;;16.84;57.63;101838.31;4965683;28;97352;-42
2023/07/18 00:35:11;;;;;;;1.53;1.43;;;;;;;16.84;57.50;101839.03;4962817;28;97347;-42
2023/07/18 00:37:38;;;;;;;2.03;1.83;;;;;;;16.85;57.61;101839.81;4964381;28;97267;-42
2023/07/18 00:40:10;;;;;;;1.63;1.53;;;;;;;16.85;57.62;101848.16;4964959;28;97256;-42
2023/07/18 00:42:35;;;;;;;1.40;1.30;;;;;;;16.85;57.71;101842.59;4964269;28;97472;-42
2023/07/18 00:45:00;;;;;;;1.57;1.47;;;;;;;16.83;57.68;101837.53;4964778;28;97513;-43
2023/07/18 00:47:26;;;;;;;1.70;1.53;;;;;;;16.85;57.70;101831.47;4965129;28;97066;-42
2023/07/18 00:49:51;;;;;;;2.60;2.20;;;;;;;16.84;57.56;101833.50;4963292;28;97051;-42
2023/07/18 00:52:17;;;;;;;1.83;1.43;;;;;;;16.84;57.69;101832.75;4966538;28;97003;-43
2023/07/18 00:54:43;;;;;;;2.50;2.20;;;;;;;16.84;57.85;101827.19;4966304;28;97046;-42
2023/07/18 00:57:09;;;;;;;2.20;1.83;;;;;;;16.84;57.66;101832.75;4963998;28;97058;-42
2023/07/18 00:59:37;;;;;;;1.90;1.73;;;;;;;16.83;57.79;101826.44;4964608;28;96904;-43
2023/07/18 01:02:02;;;;;;;2.40;1.87;;;;;;;16.81;57.66;101825.41;4964677;28;97865;-42
2023/07/18 01:04:28;;;;;;;3.07;1.80;;;;;;;16.82;57.83;101826.94;4963797;28;97098;-42
2023/07/18 01:06:54;;;;;;;3.73;2.23;;;;;;;16.83;57.86;101829.22;4964061;28;97172;-42
2023/07/18 01:09:19;;;;;;;3.97;2.00;;;;;;;16.84;57.79;101829.97;4963538;28;97206;-42
2023/07/18 01:11:44;;;;;;;1.90;1.80;;;;;;;16.85;57.95;101823.13;4963200;28;97212;-42
2023/07/18 01:14:10;;;;;;;2.63;1.57;;;;;;;16.86;57.91;101822.63;4965779;28;97177;-42
2023/07/18 01:16:35;;;;;;;2.80;1.80;;;;;;;16.84;57.84;101822.38;4965775;28;97034;-43
2023/07/18 01:19:01;;;;;;;3.10;1.87;;;;;;;16.84;57.98;101816.81;4965012;28;97364;-42
2023/07/18 01:21:26;;;;;;;1.17;1.07;;;;;;;16.84;57.95;101818.84;4963790;28;96897;-42
2023/07/18 01:23:51;;;;;;;1.90;1.20;;;;;;;16.84;57.99;101819.59;4964715;28;97479;-43
2023/07/18 01:26:17;;;;;;;2.40;2.13;;;;;;;16.81;57.94;101820.63;4964760;28;97657;-42
2023/07/18 01:28:42;;;;;;;3.23;1.67;;;;;;;16.78;58.10;101812.53;4964612;28;97843;-42
2023/07/18 01:31:07;;;;;;;3.27;1.90;;;;;;;16.77;58.06;101813.81;4963950;28;97585;-42
2023/07/18 01:33:33;;;;;;;2.20;2.00;;;;;;;16.76;58.18;101815.06;4963104;28;96739;-41
2023/07/18 01:36:00;;;;;;;2.30;1.80;;;;;;;16.76;58.16;101809.50;4965014;28;96719;-42
2023/07/18 01:38:29;;;;;;;1.97;1.63;;;;;;;16.79;58.27;101822.38;4963669;28;97434;-42
2023/07/18 01:41:03;;;;;;;2.17;1.93;;;;;;;16.82;58.75;101818.59;4962764;28;97234;-42
2023/07/18 01:43:29;;;;;;;5.40;1.80;;;;;;;16.81;58.23;101817.06;4964510;28;96778;-42
2023/07/18 01:45:59;;;;;;;4.60;1.90;;;;;;;16.82;58.35;101822.13;4962384;28;97185;-43
2023/07/18 01:48:24;;;;;;;2.23;2.03;;;;;;;16.81;58.14;101812.28;4963761;28;97062;-42
2023/07/18 01:50:50;;;;;;;2.03;1.83;;;;;;;16.82;58.17;101813.78;4962991;28;97227;-42
2023/07/18 01:53:15;;;;;;;1.90;1.80;;;;;;;16.83;58.23;101808.97;4963791;28;97255;-42
2023/07/18 01:55:41;;;;;;;2.33;2.13;;;;;;;16.82;58.18;101810.25;4964609;28;97298;-42
2023/07/18 01:58:06;;;;;;;2.47;2.10;;;;;;;16.81;57.94;101805.97;4963877;28;96839;-42
2023/07/18 02:00:32;;;;;;;3.73;1.93;;;;;;;16.80;58.28;101804.44;4963992;28;97153;-43
2023/07/18 02:02:57;;;;;;;2.00;1.73;;;;;;;16.78;58.18;101801.41;4964430;28;97036;-42
2023/07/18 02:05:28;;;;;;;2.33;2.13;;;;;;;16.73;58.37;101802.91;4964326;28;97477;-44
2023/07/18 02:07:54;;;;;;;2.00;1.80;;;;;;;16.69;58.25;101794.09;4963251;28;98759;-43
2023/07/18 02:10:20;;;;;;;3.93;1.90;;;;;;;16.67;58.13;101804.19;4963525;28;98582;-43
2023/07/18 02:12:50;;;;;;;2.20;2.00;;;;;;;16.65;58.57;101798.38;4963078;28;97054;-42
2023/07/18 02:15:15;;;;;;;6.07;2.50;;;;;;;16.65;58.56;101795.59;4964602;28;96846;-42
2023/07/18 02:17:42;;;;;;;2.37;1.80;;;;;;;16.66;58.52;101795.13;4963145;28;96906;-42
2023/07/18 02:20:09;;;;;;;2.40;2.00;;;;;;;16.69;58.53;101794.09;4963448;28;97140;-43
2023/07/18 02:22:35;;;;;;;2.03;1.83;;;;;;;16.67;58.44;101796.63;4963996;28;96973;-41
2023/07/18 02:25:05;;;;;;;2.37;2.17;;;;;;;16.67;58.66;101796.63;4964304;28;97083;-42
2023/07/18 02:27:37;;;;;;;1.83;1.70;;;;;;;16.67;58.52;101801.41;4963413;28;97990;-42
2023/07/18 02:30:05;;;;;;;5.53;2.27;;;;;;;16.64;58.44;101796.88;4963724;28;97187;-43
2023/07/18 02:32:31;;;;;;;3.40;2.40;;;;;;;16.63;58.44;101798.91;4964420;28;97334;-42
2023/07/18 02:34:57;;;;;;;3.43;2.73;;;;;;;16.61;58.36;101797.88;4964139;28;96782;-42
2023/07/18 02:37:24;;;;;;;2.60;2.00;;;;;;;16.57;58.50;101797.38;4964054;28;97350;-42
2023/07/18 02:39:50;;;;;;;5.13;2.10;;;;;;;16.52;58.59;101796.13;4963405;28;97169;-42
2023/07/18 02:42:17;;;;;;;2.10;1.70;;;;;;;16.52;58.55;101795.38;4963814;28;97322;-42
2023/07/18 02:44:43;;;;;;;2.27;2.10;;;;;;;16.51;58.68;101796.66;4963585;28;96931;-42
2023/07/18 02:47:09;;;;;;;1.97;1.87;;;;;;;16.51;58.71;101796.66;4963773;28;96887;-42
2023/07/18 02:49:34;;;;;;;2.03;1.87;;;;;;;16.51;58.53;101796.66;4963268;28;98351;-43
2023/07/18 02:52:00;;;;;;;1.67;1.57;;;;;;;16.48;58.51;101799.16;4963776;28;96769;-42
2023/07/18 02:54:25;;;;;;;2.87;2.23;;;;;;;16.45;58.63;101800.16;4963491;28;97182;-42
2023/07/18 02:56:51;;;;;;;3.17;1.90;;;;;;;16.47;58.62;101799.63;4963466;28;97511;-42
2023/07/18 02:59:20;;;;;;;2.10;2.00;;;;;;;16.46;58.50;101798.13;4961821;28;96877;-41
2023/07/18 03:01:49;;;;;;;1.87;1.73;;;;;;;16.44;58.59;101804.19;4963273;28;96907;-42
2023/07/18 03:04:15;;;;;;;4.97;2.03;;;;;;;16.43;58.63;101811.00;4957406;28;97016;-42
2023/07/18 03:06:41;;;;;;;2.07;1.83;;;;;;;16.44;58.61;101814.53;4962059;28;96793;-42
2023/07/18 03:09:06;;;;;;;4.37;2.50;;;;;;;16.42;58.59;101811.50;4963111;28;97319;-43
2023/07/18 03:11:32;;;;;;;3.27;2.17;;;;;;;16.42;58.59;101817.81;4962328;28;96972;-43
2023/07/18 03:13:57;;;;;;;2.57;2.33;;;;;;;16.42;58.58;101814.28;4962050;28;97579;-43
2023/07/18 03:16:22;;;;;;;3.43;2.70;;;;;;;16.41;58.67;101819.09;4960012;28;113317;-42
2023/07/18 03:18:48;;;;;;;5.70;2.03;;;;;;;16.41;58.73;101824.63;4961800;28;97560;-42
2023/07/18 03:21:13;;;;;;;1.93;1.83;;;;;;;16.41;58.71;101816.31;4963280;28;97223;-43
2023/07/18 03:23:39;;;;;;;2.87;2.07;;;;;;;16.41;58.64;101816.31;4960058;28;97282;-42
2023/07/18 03:26:04;;;;;;;2.50;2.17;;;;;;;16.40;58.78;101817.56;4962856;28;96791;-42
2023/07/18 03:28:29;;;;;;;5.43;2.07;;;;;;;16.41;58.71;101816.31;4962500;28;107695;-42
2023/07/18 03:30:55;;;;;;;2.90;2.20;;;;;;;16.40;58.79;101823.13;4962842;28;97064;-42
2023/07/18 03:33:20;;;;;;;3.30;1.83;;;;;;;16.38;58.87;101817.31;4963373;28;96723;-42
2023/07/18 03:35:46;;;;;;;2.20;2.07;;;;;;;16.38;58.85;101825.63;4962139;28;97076;-42
2023/07/18 03:38:11;;;;;;;3.20;2.77;;;;;;;16.41;58.77;101819.09;4962325;28;106934;-42
2023/07/18 03:40:38;;;;;;;1.93;1.80;;;;;;;16.42;58.76;101823.38;4962793;28;97423;-43
2023/07/18 03:43:03;;;;;;;3.23;2.23;;;;;;;16.44;58.86;101820.09;4962596;28;97581;-42
2023/07/18 03:45:29;;;;;;;6.07;2.37;;;;;;;16.47;59.07;101830.94;4948417;28;96960;-42
2023/07/18 03:47:54;;;;;;;2.50;2.30;;;;;;;16.52;58.95;101832.25;4956418;28;99820;-43
2023/07/18 03:50:20;;;;;;;4.93;2.40;;;;;;;16.52;58.85;101828.69;4961795;28;97226;-42
2023/07/18 03:52:45;;;;;;;3.27;2.20;;;;;;;16.51;58.84;101830.75;4959008;28;97113;-43
2023/07/18 03:55:11;;;;;;;2.80;2.27;;;;;;;16.52;58.99;101839.81;4960941;28;97103;-43
2023/07/18 03:57:36;;;;;;;3.03;2.40;;;;;;;16.55;59.23;101828.47;4961071;28;97166;-42
2023/07/18 04:00:13;;;;;;;2.73;2.33;;;;;;;16.57;59.09;101831.50;4961389;28;97143;-44
2023/07/18 04:02:38;;;;;;;7.10;2.33;;;;;;;16.61;59.08;101831.22;4960543;28;97863;-43
2023/07/18 04:05:04;;;;;;;6.17;2.40;;;;;;;16.61;59.07;101829.22;4961585;28;97365;-42
2023/07/18 04:07:29;;;;;;;3.00;2.67;;;;;;;16.64;58.98;101830.22;4961847;28;97296;-43
2023/07/18 04:09:54;;;;;;;2.70;2.50;;;;;;;16.63;59.23;101831.47;4954094;28;97535;-43
2023/07/18 04:12:20;;;;;;;3.07;2.50;;;;;;;16.62;59.37;101822.38;4957315;28;97345;-43
2023/07/18 04:14:45;;;;;;;4.07;2.80;;;;;;;16.72;59.22;101823.66;4958332;28;97255;-43
2023/07/18 04:17:11;;;;;;;3.07;2.23;;;;;;;16.75;59.25;101824.66;4959375;28;97286;-43
2023/07/18 04:19:36;;;;;;;8.20;2.70;;;;;;;16.78;59.34;101820.84;4958304;28;100174;-43
2023/07/18 04:22:02;;;;;;;2.90;2.30;;;;;;;16.81;59.34;101823.41;4959716;28;100114;-43
2023/07/18 04:24:27;;;;;;;3.10;2.80;;;;;;;16.88;59.44;101827.69;4960985;28;97186;-43
2023/07/18 04:26:52;;;;;;;5.03;2.97;;;;;;;16.92;59.42;101830.97;4958949;28;106509;-43
2023/07/18 04:29:18;;;;;;;3.20;2.50;;;;;;;16.97;59.45;101828.16;4960904;28;96862;-43
2023/07/18 04:31:44;;;;;;;2.60;2.40;;;;;;;17.02;59.43;101830.19;4960935;28;97149;-42
2023/07/18 04:34:09;;;;;;;4.70;3.10;;;;;;;17.06;59.54;101824.34;4961021;28;97273;-43
2023/07/18 04:36:35;;;;;;;3.53;2.83;;;;;;;17.09;59.51;101821.31;4960065;28;106607;-43
2023/07/18 04:39:00;;;;;;;3.23;2.47;;;;;;;17.12;59.60;101825.84;4959671;28;97218;-43
2023/07/18 04:41:25;;;;;;;5.10;3.07;;;;;;;17.15;59.58;101826.84;4961529;28;97206;-42
2023/07/18 04:43:50;;;;;;;3.33;2.80;;;;;;;17.18;59.58;101820.28;4960174;28;97175;-43
2023/07/18 04:46:16;;;;;;;3.90;2.70;;;;;;;17.21;59.73;101833.19;4960228;28;109101;-43
2023/07/18 04:48:41;;;;;;;11.50;3.40;;;;;;;17.22;59.80;101832.66;4961336;28;96998;-43
2023/07/18 04:51:06;;;;;;;7.23;2.20;;;;;;;17.25;59.84;101833.69;4961064;28;96974;-43
2023/07/18 04:53:32;;;;;;;4.30;2.70;;;;;;;17.29;59.85;101838.97;4961335;28;97133;-42
2023/07/18 04:55:58;;;;;;;4.80;2.57;;;;;;;17.32;59.79;101832.38;4958995;28;97268;-42
2023/07/18 04:58:24;;;;;;;3.83;2.37;;;;;;;17.34;59.93;101838.97;4960328;28;97004;-42
2023/07/18 05:00:51;;;;;;;2.80;2.60;;;;;;;17.37;59.78;101826.78;4961042;28;97632;-42
2023/07/18 05:03:16;;;;;;;3.10;2.50;;;;;;;17.40;59.80;101814.66;4958189;28;97391;-42
2023/07/18 05:05:42;;;;;;;3.27;2.50;;;;;;;17.43;59.80;101816.41;4961679;28;97125;-43
2023/07/18 05:08:07;;;;;;;3.23;2.60;;;;;;;17.48;59.96;101818.41;4959082;28;97338;-43
2023/07/18 05:10:32;;;;;;;2.73;2.23;;;;;;;17.54;60.00;101810.09;4960667;28;100617;-43
2023/07/18 05:12:58;;;;;;;8.33;3.10;;;;;;;17.61;60.05;101812.31;4958795;28;104375;-42
2023/07/18 05:15:24;;;;;;;4.47;2.50;;;;;;;17.69;60.02;101816.81;4960683;28;97370;-42
2023/07/18 05:17:50;;;;;;;2.43;2.23;;;;;;;17.78;60.03;101808.16;4964218;28;96789;-42
2023/07/18 05:20:16;;;;;;;4.13;2.40;;;;;;;17.85;60.07;101804.84;4962877;28;96859;-42
2023/07/18 05:22:43;;;;;;;3.47;2.47;;;;;;;17.91;60.09;101805.56;4963609;28;97282;-42
2023/07/18 05:25:10;;;;;;;2.50;2.30;;;;;;;17.98;60.19;101807.03;4963692;28;97426;-43
2023/07/18 05:27:36;;;;;;;5.73;3.10;;;;;;;18.04;60.14;101807.03;4965473;28;100082;-42
2023/07/18 05:30:04;;;;;;;3.43;2.80;;;;;;;18.12;60.07;101816.31;4954858;28;97054;-43
2023/07/18 05:32:30;;;;;;;2.87;2.43;;;;;;;18.16;60.00;101820.34;4962426;28;97352;-43
2023/07/18 05:34:55;;;;;;;4.87;2.80;;;;;;;18.23;60.18;101824.59;4964073;28;97173;-42
2023/07/18 05:37:21;;;;;;;3.30;2.97;;;;;;;18.26;60.07;101829.16;4965232;28;100976;-43
2023/07/18 05:39:47;;;;;;;4.60;2.83;;;;;;;18.31;60.10;101831.88;4965730;28;97226;-43
2023/07/18 05:42:12;;;;;;;4.67;3.10;;;;;;;18.35;60.06;101837.94;4964635;28;101832;-43
2023/07/18 05:44:37;;;;;;;4.20;2.47;;;;;;;18.37;59.92;101840.97;4963237;28;97092;-42
2023/07/18 05:47:03;;;;;;;3.10;2.77;;;;;;;18.41;59.99;101832.34;4964655;28;97567;-42
2023/07/18 05:49:28;;;;;;;3.97;3.00;;;;;;;18.44;59.91;101839.63;4963921;28;96878;-43
2023/07/18 05:51:53;;;;;;;3.20;2.90;;;;;;;18.45;60.06;101833.59;4961165;28;97278;-43
2023/07/18 05:54:19;;;;;;;5.20;2.80;;;;;;;18.48;59.75;101840.13;4963698;28;97105;-42
2023/07/18 05:56:44;;;;;;;5.37;2.70;;;;;;;18.47;59.89;101842.19;4965659;28;98175;-43
2023/07/18 05:59:09;;;;;;;5.03;3.10;;;;;;;18.49;59.86;101844.44;4963970;28;97180;-43
2023/07/18 06:01:35;;;;;;;3.73;2.80;;;;;;;18.46;59.54;101854.59;4963265;28;97492;-43
2023/07/18 06:04:00;;;;;;;3.93;2.70;;;;;;;18.47;59.68;101847.00;4963140;28;99085;-43
2023/07/18 06:06:26;;;;;;;4.03;2.90;;;;;;;18.53;59.79;101854.03;4964119;28;97129;-42
2023/07/18 06:08:51;;;;;;;5.87;3.13;;;;;;;18.56;59.77;101853.03;4964741;28;99852;-43
2023/07/18 06:11:18;;;;;;;3.23;2.87;;;;;;;18.60;59.67;101847.91;4962248;28;97796;-42
2023/07/18 06:13:44;;;;;;;3.67;2.30;;;;;;;18.63;59.38;101848.91;4960094;28;97239;-42
2023/07/18 06:16:10;;;;;;;3.73;2.60;;;;;;;18.66;59.73;101856.22;4963466;28;96730;-43
2023/07/18 06:18:35;;;;;;;4.57;2.50;;;;;;;18.75;59.53;101846.75;4962430;28;97257;-43
2023/07/18 06:21:02;;;;;;;5.03;2.87;;;;;;;18.82;59.36;101857.34;4959730;28;97869;-42
2023/07/18 06:23:29;;;;;;;3.23;2.60;;;;;;;18.88;59.36;101856.03;4964554;28;97228;-42
2023/07/18 06:25:55;;;;;;;2.93;2.23;;;;;;;18.91;59.31;101857.03;4963538;28;97130;-43
2023/07/18 06:28:20;;;;;;;5.43;2.90;;;;;;;18.94;59.19;101848.34;4963066;28;96874;-42
2023/07/18 06:30:45;;;;;;;4.93;2.83;;;;;;;19.03;58.97;101850.81;4962079;28;96608;-42
2023/07/18 06:33:11;;;;;;;2.10;2.00;;;;;;;19.13;59.00;101843.59;4963083;28;97098;-43
2023/07/18 06:35:37;;;;;;;3.23;2.20;;;;;;;19.24;58.94;101843.47;4964177;28;97134;-46
2023/07/18 06:38:02;;;;;;;4.60;2.40;;;;;;;19.31;58.64;101879.19;4962231;28;97486;-43
2023/07/18 06:40:28;;;;;;;4.70;2.30;;;;;;;19.35;58.68;101842.66;4962169;28;97840;-43
2023/07/18 06:42:53;;;;;;;4.20;2.90;;;;;;;19.40;58.43;101842.56;4962344;28;98131;-43
2023/07/18 06:45:18;;;;;;;4.60;2.20;;;;;;;19.53;58.53;101838.38;4961069;28;100383;-42
2023/07/18 06:47:44;;;;;;;3.07;1.90;;;;;;;19.60;58.30;101843.34;4962204;28;97262;-42
2023/07/18 06:50:10;;;;;;;4.57;2.40;;;;;;;19.64;58.33;101844.56;4961035;28;97210;-43
2023/07/18 06:52:35;;;;;;;7.67;2.30;;;;;;;19.69;58.00;101843.75;4961958;28;97381;-42
2023/07/18 06:55:00;;;;;;;5.70;2.03;;;;;;;19.78;58.09;101842.63;4962087;28;97240;-44
2023/07/18 06:57:26;;;;;;;10.07;1.90;;;;;;;19.83;57.69;101841.78;4960243;28;98235;-43
2023/07/18 06:59:51;;;;;;;4.73;1.90;;;;;;;19.88;57.92;101850.09;4961435;28;110484;-43
2023/07/18 07:02:16;;;;;;;2.97;2.03;;;;;;;19.93;57.86;101851.28;4962181;28;97248;-43
2023/07/18 07:04:42;;;;;;;5.53;2.27;;;;;;;20.01;57.58;101843.81;4961687;28;97432;-42
2023/07/18 07:07:07;;;;;;;5.20;2.03;;;;;;;20.07;57.46;101839.66;4961990;28;96745;-43
2023/07/18 07:09:33;;;;;;;2.53;1.87;;;;;;;20.13;57.49;101834.75;4961825;28;97221;-43
2023/07/18 07:11:59;;;;;;;4.40;1.83;;;;;;;20.21;57.51;101836.94;4951272;28;97553;-42
2023/07/18 07:14:25;;;;;;;2.80;1.73;;;;;;;20.28;57.27;101844.72;4962342;28;97060;-43
2023/07/18 07:16:51;;;;;;;5.57;2.10;;;;;;;20.38;57.30;101829.81;4961719;28;97105;-43
2023/07/18 07:19:16;;;;;;;3.70;1.77;;;;;;;20.48;57.25;101833.72;4961485;28;97134;-43
2023/07/18 07:21:42;;;;;;;1.83;1.73;;;;;;;20.52;56.87;101834.16;4960070;28;97139;-43
2023/07/18 07:24:08;;;;;;;2.53;1.83;;;;;;;20.53;56.73;101829.34;4960205;28;97612;-43
2023/07/18 07:26:33;;;;;;;5.70;1.70;;;;;;;20.61;56.76;101830.97;4961564;28;97490;-43
2023/07/18 07:28:59;;;;;;;2.67;1.60;;;;;;;20.70;56.41;101832.59;4960251;28;96865;-43
2023/07/18 07:31:24;;;;;;;3.33;1.57;;;;;;;20.76;56.41;101844.44;4960628;28;98313;-43
2023/07/18 07:33:49;;;;;;;4.00;1.80;;;;;;;20.89;56.47;101828.44;4966704;28;97429;-43
2023/07/18 07:36:15;;;;;;;4.03;1.63;;;;;;;20.96;56.24;101832.63;4959182;28;97286;-43
2023/07/18 07:38:41;;;;;;;2.60;1.37;;;;;;;21.00;56.12;101823.91;4961046;28;98323;-43
2023/07/18 07:41:06;;;;;;;2.67;1.70;;;;;;;21.02;56.05;101824.13;4959340;28;97218;-42
2023/07/18 07:43:32;;;;;;;1.93;1.37;;;;;;;21.09;55.91;101820.72;4962331;28;96758;-43
2023/07/18 07:45:58;;;;;;;5.17;1.57;;;;;;;21.14;55.90;101815.03;4959648;28;97246;-42
2023/07/18 07:48:24;;;;;;;2.00;1.47;;;;;;;21.24;55.85;101818.13;4960271;28;97442;-42
2023/07/18 07:50:49;;;;;;;5.67;1.70;;;;;;;21.32;55.67;101811.34;4960602;28;97171;-43
2023/07/18 07:53:14;;;;;;;5.63;1.90;;;;;;;21.41;55.52;101813.72;4961684;28;97053;-43
2023/07/18 07:55:40;;;;;;;2.00;1.23;;;;;;;21.47;55.37;101808.00;4961854;28;96990;-43
2023/07/18 07:58:05;;;;;;;5.60;1.10;;;;;;;21.57;55.18;101811.84;4960529;28;106612;-43
2023/07/18 08:00:31;;;;;;;1.13;1.00;;;;;;;21.70;55.12;101803.44;4960803;28;97065;-43
2023/07/18 08:02:56;;;;;;;2.37;1.30;;;;;;;21.83;54.86;101802.66;4961530;28;97173;-42
2023/07/18 08:05:21;;;;;;;1.43;1.30;;;;;;;21.93;54.55;101798.13;4959543;28;97174;-43
2023/07/18 08:07:47;;;;;;;2.43;1.20;;;;;;;21.96;54.34;101802.63;4959997;28;97139;-43
2023/07/18 08:10:12;;;;;;;2.33;1.30;;;;;;;21.99;54.24;101807.91;4960186;28;97131;-43
2023/07/18 08:12:38;;;;;;;3.20;1.20;;;;;;;22.08;54.21;101803.88;4960364;28;97307;-43
2023/07/18 08:15:04;;;;;;;1.53;1.10;;;;;;;22.13;54.10;101800.16;4961334;28;97027;-43
2023/07/18 08:17:30;;;;;;;1.70;1.27;;;;;;;22.16;53.98;101799.84;4962002;28;97150;-43
2023/07/18 08:19:55;;;;;;;1.20;0.90;;;;;;;22.29;54.04;101799.03;4960740;28;97163;-43
2023/07/18 08:22:20;;;;;;;3.30;1.10;;;;;;;22.31;53.65;101793.63;4960385;28;97214;-43
2023/07/18 08:24:45;;;;;;;2.70;1.20;;;;;;;22.34;53.54;101796.06;4962840;28;97097;-43
2023/07/18 08:27:11;;;;;;;3.27;1.00;;;;;;;22.45;53.52;101781.03;4959593;28;105018;-42
2023/07/18 08:29:36;;;;;;;2.43;1.03;;;;;;;22.56;53.37;101791.22;4962329;28;97022;-43
2023/07/18 08:32:03;;;;;;;4.37;1.23;;;;;;;22.63;53.02;101779.34;4962704;28;97089;-43
2023/07/18 08:34:28;;;;;;;2.17;1.10;;;;;;;22.67;52.89;101786.09;4960427;28;96776;-43
2023/07/18 08:36:54;;;;;;;3.27;1.00;;;;;;;22.71;52.69;101783.69;4959985;28;97118;-44
2023/07/18 08:39:19;;;;;;;3.10;1.13;;;;;;;22.79;52.57;101778.88;4959255;28;96902;-43
2023/07/18 08:41:49;;;;;;;3.03;1.40;;;;;;;22.93;52.45;101777.47;4959340;28;97063;-43
2023/07/18 08:44:16;;;;;;;2.60;0.90;;;;;;;23.00;51.91;101781.63;4960104;28;97193;-43
2023/07/18 08:46:45;;;;;;;2.57;0.87;;;;;;;23.05;52.10;101775.09;4961020;28;97457;-43
2023/07/18 08:49:13;;;;;;;0.90;0.80;;;;;;;23.16;51.61;101774.78;4959799;28;97257;-43
2023/07/18 08:51:39;;;;;;;1.17;1.07;;;;;;;23.27;51.79;101763.25;4962771;28;96776;-43
2023/07/18 08:54:05;;;;;;;5.97;1.00;;;;;;;23.43;51.23;101770.47;4964042;28;96914;-44
2023/07/18 08:56:30;;;;;;;1.60;1.07;;;;;;;23.56;51.18;101766.75;4962734;28;97324;-43
2023/07/18 08:58:57;;;;;;;1.57;1.10;;;;;;;23.64;50.53;101767.53;4963879;28;97168;-43
2023/07/18 09:01:24;;;;;;;1.00;0.83;;;;;;;23.73;50.48;101770.56;4963474;28;97311;-43
2023/07/18 09:03:49;;;;;;;2.13;1.00;;;;;;;23.89;50.13;101760.13;4962556;28;96997;-43
2023/07/18 09:06:18;;;;;;;1.33;0.83;;;;;;;23.96;50.02;101758.63;4963061;28;97110;-43
2023/07/18 09:08:43;;;;;;;2.27;0.97;;;;;;;23.96;49.70;101762.16;4962316;28;97455;-50
2023/07/18 09:11:12;;;;;;;1.30;0.73;;;;;;;23.98;49.51;101764.44;4963566;28;97339;-43
2023/07/18 09:13:39;;;;;;;1.20;0.90;;;;;;;23.90;49.51;101758.78;4963474;28;97300;-43
2023/07/18 09:16:20;;;;;;;1.80;1.10;;;;;;;23.91;48.59;101751.88;4964208;28;98033;-43
2023/07/18 09:18:53;;;;;;;0.80;0.77;;;;;;;24.10;48.96;101741.03;4963484;28;97506;-43
2023/07/18 09:21:20;;;;;;;1.67;1.00;;;;;;;24.33;49.03;101744.59;4963515;28;96826;-43
2023/07/18 09:23:46;;;;;;;1.40;0.90;;;;;;;24.46;48.82;101738.78;4963989;28;97114;-43
2023/07/18 09:26:18;;;;;;;2.07;1.07;;;;;;;24.41;48.56;101739.72;4961203;28;97909;-42
2023/07/18 09:28:45;;;;;;;3.10;1.23;;;;;;;24.44;48.83;101741.41;4961854;28;97367;-43
2023/07/18 09:31:22;;;;;;;4.03;1.17;;;;;;;24.46;47.59;101743.66;4962136;28;97469;-43
2023/07/18 09:33:49;;;;;;;3.67;1.00;;;;;;;24.66;48.63;101742.69;4964195;28;97133;-43
2023/07/18 09:36:19;;;;;;;1.47;1.10;;;;;;;24.92;47.86;101747.19;4962638;28;97250;-43
2023/07/18 09:38:46;;;;;;;2.40;1.10;;;;;;;24.87;47.42;101740.44;4962817;28;96990;-43
2023/07/18 09:41:12;;;;;;;2.03;1.00;;;;;;;24.75;47.57;101744.97;4962600;28;96940;-44
2023/07/18 09:43:40;;;;;;;1.80;0.70;;;;;;;24.62;47.58;101747.94;4963419;28;97532;-43
2023/07/18 09:46:07;;;;;;;1.40;0.97;;;;;;;24.77;47.61;101742.31;4963749;28;97283;-43
2023/07/18 09:48:32;;;;;;;1.60;0.90;;;;;;;25.05;47.38;101733.59;4962292;28;97267;-42
2023/07/18 09:50:59;;;;;;;1.73;1.03;;;;;;;25.36;47.04;101733.50;4963266;28;97268;-43
2023/07/18 09:53:26;;;;;;;1.93;0.93;;;;;;;25.30;46.62;101726.00;4962818;28;97306;-43
2023/07/18 09:55:52;;;;;;;1.57;0.90;;;;;;;25.28;46.81;101734.28;4963960;28;97424;-44
2023/07/18 09:58:21;;;;;;;1.30;0.70;;;;;;;25.30;46.76;101737.28;4962408;28;97700;-43
2023/07/18 10:00:47;;;;;;;1.67;0.80;;;;;;;25.49;46.46;101730.47;4962314;28;96813;-43
2023/07/18 10:03:14;;;;;;;1.40;0.80;;;;;;;25.45;46.07;101728.03;4962329;28;97305;-44
2023/07/18 10:05:39;;;;;;;1.83;0.80;;;;;;;25.33;46.35;101729.75;4961848;28;97854;-43
2023/07/18 10:08:07;;;;;;;4.93;0.83;;;;;;;25.42;46.29;101719.94;4961902;28;97230;-43
2023/07/18 10:10:32;;;;;;;3.00;0.90;;;;;;;25.62;46.11;101713.28;4962666;28;97246;-43
2023/07/18 10:12:59;;;;;;;2.20;0.83;;;;;;;25.85;45.56;101713.88;4961216;28;97218;-43
2023/07/18 10:15:25;;;;;;;1.77;0.70;;;;;;;26.01;45.20;101710.34;4961854;28;96834;-43
2023/07/18 10:17:51;;;;;;;1.70;0.80;;;;;;;26.12;44.85;101711.25;4961276;28;96780;-44
2023/07/18 10:20:22;;;;;;;1.97;1.17;;;;;;;26.26;44.09;101704.72;4963343;28;97261;-43
2023/07/18 10:22:50;;;;;;;1.40;0.83;;;;;;;26.30;44.41;101702.25;4962185;28;97050;-43
2023/07/18 10:25:19;;;;;;;1.43;0.87;;;;;;;26.18;44.01;101701.25;4961654;28;97396;-44
2023/07/18 10:27:46;;;;;;;1.50;0.90;;;;;;;26.02;44.55;101703.41;4961075;28;97198;-44
2023/07/18 10:30:15;;;;;;;1.43;0.80;;;;;;;26.12;44.89;101699.97;4962880;28;97404;-43
2023/07/18 10:32:42;;;;;;;1.30;0.80;;;;;;;26.24;44.27;101696.09;4963666;28;96754;-43
2023/07/18 10:35:13;;;;;;;1.10;0.80;;;;;;;26.22;43.36;101695.94;4961761;28;97175;-44
2023/07/18 10:37:43;;;;;;;1.70;0.93;;;;;;;26.20;43.38;101701.41;4962472;28;96661;-43
2023/07/18 10:40:10;;;;;;;1.67;0.80;;;;;;;26.30;43.80;101693.78;4961679;28;97159;-43
2023/07/18 10:42:36;;;;;;;2.40;0.70;;;;;;;26.37;43.56;101690.16;4960700;28;96839;-44
2023/07/18 10:45:06;;;;;;;1.10;0.97;;;;;;;26.50;42.99;101686.25;4960198;28;97952;-44
2023/07/18 10:47:35;;;;;;;1.57;0.70;;;;;;;26.58;43.12;101681.28;4958260;28;97104;-44
2023/07/18 10:50:01;;;;;;;1.20;0.80;;;;;;;26.70;42.63;101685.09;4961795;28;96864;-44
2023/07/18 10:52:26;;;;;;;1.80;0.90;;;;;;;26.77;42.46;101678.66;4960600;28;97326;-44
2023/07/18 10:54:58;;;;;;;4.23;1.30;;;;;;;26.70;42.16;101670.97;4959848;28;97733;-43
2023/07/18 10:57:35;;;;;;;1.37;0.80;;;;;;;26.69;41.50;101675.88;4957776;28;96962;-44
2023/07/18 11:00:05;;;;;;;2.13;0.80;;;;;;;26.67;42.58;101661.59;4962555;28;97327;-43
2023/07/18 11:02:41;;;;;;;1.93;0.93;;;;;;;26.62;41.53;101659.78;4959748;28;96788;-43
2023/07/18 11:05:10;;;;;;;1.53;1.03;;;;;;;26.65;42.20;101655.78;4960736;28;96782;-43
2023/07/18 11:07:44;;;;;;;4.20;1.00;;;;;;;26.80;42.04;101659.78;4958214;28;96841;-44
2023/07/18 11:10:10;;;;;;;1.00;0.80;;;;;;;26.97;41.75;101656.94;4962246;28;97192;-44
2023/07/18 11:12:36;;;;;;;0.97;0.83;;;;;;;27.07;41.52;101657.75;4960385;28;97201;-44
2023/07/18 11:15:09;;;;;;;0.80;0.60;;;;;;;27.15;39.69;101647.09;4960363;28;97038;-44
2023/07/18 11:17:35;;;;;;;1.10;0.73;;;;;;;27.24;40.79;101646.41;4961088;28;97212;-43
2023/07/18 11:20:02;;;;;;;1.87;0.90;;;;;;;27.36;40.68;101638.91;4962071;28;97095;-44